Time;durP1;ratioP1;P1;durP2;ratioP2;P2;SDS_P1;SDS_P2;PMS_P1;PMS_P2;Temp;Humidity;BMP_temperature;BMP_pressure;BME280_temperature;BME280_humidity;BME280_pressure;Samples;Min_cycle;Max_cycle;Signal;HPM_P1;HPM_P2
2023/10/22 00:00:00;;;;;;;0.50;0.50;;;;;;;10.42;100.00;95907.75;29395;210;63005;-58
2023/10/22 00:00:31;;;;;;;0.50;0.50;;;;;;;10.45;100.00;95906.31;29395;222;63009;-57
2023/10/22 00:01:03;;;;;;;0.52;0.52;;;;;;;10.45;100.00;95901.69;29395;266;63008;-58
2023/10/22 00:01:34;;;;;;;0.50;0.50;;;;;;;10.46;100.00;95911.44;29395;214;63009;-56
2023/10/22 00:02:05;;;;;;;0.50;0.50;;;;;;;10.50;100.00;95898.84;29395;218;63004;-58
2023/10/22 00:02:37;;;;;;;0.50;0.50;;;;;;;10.50;100.00;95898.84;29395;268;63009;-58
2023/10/22 00:03:08;;;;;;;0.50;0.50;;;;;;;10.50;100.00;95898.84;29395;464;63004;-58
2023/10/22 00:03:40;;;;;;;1.08;1.08;;;;;;;10.49;100.00;95901.88;29395;196;63008;-59
2023/10/22 00:04:11;;;;;;;0.50;0.50;;;;;;;10.48;100.00;95906.50;29394;240;64009;-58
2023/10/22 00:04:43;;;;;;;0.43;0.43;;;;;;;10.50;100.00;95906.16;29395;213;63009;-58
2023/10/22 00:05:14;;;;;;;0.50;0.50;;;;;;;10.49;100.00;95912.72;29395;197;63018;-58
2023/10/22 00:05:45;;;;;;;0.50;0.50;;;;;;;10.48;100.00;95906.50;29395;235;63009;-57
2023/10/22 00:06:17;;;;;;;0.50;0.50;;;;;;;10.46;100.00;95916.84;29395;246;63005;-58
2023/10/22 00:06:48;;;;;;;0.70;0.70;;;;;;;10.45;100.00;95917.97;29395;274;63017;-57
2023/10/22 00:07:19;;;;;;;0.50;0.50;;;;;;;10.45;100.00;95911.75;29395;267;63005;-57
2023/10/22 00:07:51;;;;;;;0.50;0.50;;;;;;;10.42;100.00;95918.59;29395;233;63009;-58
2023/10/22 00:08:22;;;;;;;0.50;0.50;;;;;;;10.41;100.00;95911.56;29395;233;63000;-57
2023/10/22 00:08:53;;;;;;;0.50;0.50;;;;;;;10.39;100.00;95911.12;29395;234;63009;-65
2023/10/22 00:09:24;;;;;;;0.50;0.50;;;;;;;10.40;100.00;95912.69;29394;233;64009;-57
2023/10/22 00:09:56;;;;;;;0.60;0.60;;;;;;;10.39;100.00;95913.81;29395;273;63009;-57
2023/10/22 00:10:27;;;;;;;0.50;0.50;;;;;;;10.39;100.00;95916.53;29395;244;63004;-57
2023/10/22 00:10:58;;;;;;;0.50;0.50;;;;;;;10.40;100.00;95920.81;29395;260;63015;-57
2023/10/22 00:11:30;;;;;;;0.50;0.50;;;;;;;10.40;100.00;95918.09;29394;265;64009;-58
2023/10/22 00:12:01;;;;;;;0.50;0.50;;;;;;;10.36;100.00;95917.97;29395;207;63009;-57
2023/10/22 00:12:32;;;;;;;0.50;0.50;;;;;;;10.34;100.00;95919.38;29395;235;63005;-59
2023/10/22 00:13:03;;;;;;;1.02;1.02;;;;;;;10.32;100.00;95932.47;29395;254;63009;-57
2023/10/22 00:13:34;;;;;;;0.60;0.60;;;;;;;10.32;100.00;95918.91;29395;238;63005;-58
2023/10/22 00:14:06;;;;;;;0.50;0.50;;;;;;;10.32;100.00;95924.31;29395;198;63009;-57
2023/10/22 00:14:38;;;;;;;0.50;0.50;;;;;;;10.32;100.00;95924.31;29395;197;63005;-58
2023/10/22 00:15:10;;;;;;;0.50;0.50;;;;;;;10.34;100.00;95925.63;29395;352;63004;-57
2023/10/22 00:15:41;;;;;;;0.55;0.55;;;;;;;10.34;100.00;95922.09;29395;236;63004;-57
2023/10/22 00:16:12;;;;;;;0.50;0.50;;;;;;;10.34;100.00;95922.09;29395;229;63009;-59
2023/10/22 00:16:44;;;;;;;0.50;0.50;;;;;;;10.34;100.00;95931.03;29394;222;64009;-65
2023/10/22 00:17:15;;;;;;;0.60;0.60;;;;;;;10.32;100.00;95927.03;29395;245;63009;-58
2023/10/22 00:17:47;;;;;;;0.50;0.50;;;;;;;10.26;100.00;95931.00;29395;206;63004;-58
2023/10/22 00:18:18;;;;;;;0.50;0.50;;;;;;;10.22;100.00;95924.59;29395;225;63008;-59
2023/10/22 00:18:50;;;;;;;0.50;0.50;;;;;;;10.23;100.00;95923.50;29395;344;63004;-58
2023/10/22 00:19:21;;;;;;;0.50;0.50;;;;;;;10.24;100.00;95919.66;29395;200;63009;-59
2023/10/22 00:19:53;;;;;;;0.50;0.50;;;;;;;10.25;100.00;95929.41;29395;203;63005;-58
2023/10/22 00:20:25;;;;;;;0.50;0.50;;;;;;;10.26;100.00;95931.81;29395;199;63005;-58
2023/10/22 00:20:56;;;;;;;0.50;0.50;;;;;;;10.26;100.00;95925.56;29395;197;63005;-59
2023/10/22 00:21:28;;;;;;;0.50;0.50;;;;;;;10.26;100.00;95928.28;29395;218;63009;-57
2023/10/22 00:21:59;;;;;;;0.50;0.50;;;;;;;10.25;100.00;95934.81;29394;225;64009;-58
2023/10/22 00:22:30;;;;;;;0.50;0.50;;;;;;;10.25;100.00;95929.41;29395;308;63009;-57
2023/10/22 00:23:01;;;;;;;0.50;0.50;;;;;;;10.30;100.00;95931.97;29395;243;63004;-59
2023/10/22 00:23:32;;;;;;;0.50;0.50;;;;;;;10.31;100.00;95923.53;29395;222;63009;-58
2023/10/22 00:24:04;;;;;;;0.50;0.50;;;;;;;10.33;99.96;95931.34;29395;197;63004;-58
2023/10/22 00:24:36;;;;;;;0.50;0.50;;;;;;;10.32;99.79;95924.31;29395;246;63013;-57
2023/10/22 00:25:09;;;;;;;0.50;0.50;;;;;;;10.32;99.87;95924.31;29395;232;63004;-57
2023/10/22 00:25:40;;;;;;;0.85;0.85;;;;;;;10.35;99.92;95931.84;29395;210;63008;-57
2023/10/22 00:26:14;;;;;;;0.50;0.50;;;;;;;10.36;99.36;95928.00;29394;301;64005;-58
2023/10/22 00:26:46;;;;;;;0.50;0.50;;;;;;;10.36;99.38;95933.44;29395;227;63009;-57
2023/10/22 00:27:17;;;;;;;0.50;0.50;;;;;;;10.34;99.46;95930.25;29394;223;64009;-57
2023/10/22 00:27:49;;;;;;;0.50;0.50;;;;;;;10.34;99.42;95932.94;29395;262;63009;-57
2023/10/22 00:28:21;;;;;;;0.50;0.50;;;;;;;10.33;99.26;95932.16;29394;243;64005;-58
2023/10/22 00:28:52;;;;;;;0.60;0.60;;;;;;;10.34;99.26;95935.66;29395;212;63009;-56
2023/10/22 00:29:24;;;;;;;0.50;0.50;;;;;;;10.33;99.03;95928.63;29395;217;63005;-59
2023/10/22 00:29:55;;;;;;;0.50;0.50;;;;;;;10.35;99.53;95932.63;29395;205;63009;-58
2023/10/22 00:30:26;;;;;;;0.50;0.50;;;;;;;10.38;99.16;95931.22;29395;212;63004;-57
2023/10/22 00:30:57;;;;;;;0.50;0.50;;;;;;;10.39;99.27;95933.59;29395;228;63009;-58
2023/10/22 00:31:30;;;;;;;0.60;0.60;;;;;;;10.38;99.02;95934.72;29394;266;64009;-57
2023/10/22 00:32:01;;;;;;;0.50;0.50;;;;;;;10.40;99.09;95932.47;29395;198;63024;-57
2023/10/22 00:32:32;;;;;;;0.50;0.50;;;;;;;10.40;98.65;95934.38;29395;244;63004;-58
2023/10/22 00:33:04;;;;;;;0.50;0.50;;;;;;;10.43;98.40;95933.75;29395;212;63008;-57
2023/10/22 00:33:35;;;;;;;0.50;0.50;;;;;;;10.43;98.37;95933.75;29395;216;63005;-57
2023/10/22 00:34:06;;;;;;;0.50;0.50;;;;;;;10.41;98.45;95928.63;29395;197;63009;-57
2023/10/22 00:34:37;;;;;;;0.50;0.50;;;;;;;10.39;98.56;95935.53;29395;197;63005;-57
2023/10/22 00:35:09;;;;;;;0.50;0.50;;;;;;;10.38;98.83;95936.63;29395;220;63009;-58
2023/10/22 00:35:40;;;;;;;0.50;0.50;;;;;;;10.39;98.54;95930.09;29394;213;64005;-58
2023/10/22 00:36:11;;;;;;;0.50;0.50;;;;;;;10.39;98.71;95930.91;29395;262;63009;-58
2023/10/22 00:36:42;;;;;;;0.50;0.50;;;;;;;10.41;98.51;95925.94;29394;219;64009;-58
2023/10/22 00:37:14;;;;;;;0.50;0.50;;;;;;;10.42;98.26;95929.44;29395;218;63009;-58
2023/10/22 00:37:45;;;;;;;0.50;0.50;;;;;;;10.41;98.22;95938.69;29395;211;63004;-57
2023/10/22 00:38:16;;;;;;;0.50;0.50;;;;;;;10.40;98.23;95931.66;29395;210;63009;-66
2023/10/22 00:38:47;;;;;;;0.50;0.50;;;;;;;10.39;98.08;95930.09;29395;212;63004;-58
2023/10/22 00:39:18;;;;;;;0.50;0.50;;;;;;;10.39;98.10;95935.53;29395;199;63009;-59
2023/10/22 00:39:51;;;;;;;0.50;0.50;;;;;;;10.36;98.01;95926.09;29395;205;63004;-57
2023/10/22 00:40:23;;;;;;;0.50;0.50;;;;;;;10.36;98.06;95934.22;29395;225;63008;-58
2023/10/22 00:40:54;;;;;;;0.50;0.50;;;;;;;10.37;98.37;95930.41;29395;226;63001;-58
2023/10/22 00:41:25;;;;;;;0.50;0.50;;;;;;;10.37;98.22;95932.31;29395;220;63009;-57
2023/10/22 00:41:56;;;;;;;0.50;0.50;;;;;;;10.38;98.19;95933.91;29394;234;64020;-57
2023/10/22 00:42:28;;;;;;;0.60;0.60;;;;;;;10.38;98.25;95934.72;29395;266;63009;-57
2023/10/22 00:43:04;;;;;;;0.50;0.50;;;;;;;10.38;98.03;95923.06;29395;234;63005;-58
2023/10/22 00:43:36;;;;;;;0.50;0.50;;;;;;;10.38;97.71;95928.50;29395;254;63020;-57
2023/10/22 00:44:07;;;;;;;0.50;0.50;;;;;;;10.39;98.00;95935.53;29395;209;63009;-58
2023/10/22 00:44:39;;;;;;;0.50;0.50;;;;;;;10.38;97.99;95932.00;29395;217;63009;-57
2023/10/22 00:45:10;;;;;;;0.50;0.50;;;;;;;10.38;97.70;95928.50;29394;229;64009;-57
2023/10/22 00:45:42;;;;;;;0.50;0.50;;;;;;;10.37;98.00;95945.87;29395;223;63009;-57
2023/10/22 00:46:21;;;;;;;0.50;0.50;;;;;;;10.36;97.91;95938.84;29395;252;63004;-57
2023/10/22 00:46:52;;;;;;;0.50;0.50;;;;;;;10.36;98.41;95944.28;29395;246;63009;-57
2023/10/22 00:47:24;;;;;;;0.50;0.50;;;;;;;10.35;98.00;95940.78;29394;213;64004;-58
2023/10/22 00:47:56;;;;;;;0.50;0.50;;;;;;;10.36;97.87;95947.78;29395;202;63008;-58
2023/10/22 00:48:28;;;;;;;0.50;0.50;;;;;;;10.33;97.66;95942.19;29395;210;63005;-57
2023/10/22 00:49:00;;;;;;;0.50;0.50;;;;;;;10.31;97.73;95942.50;29394;271;64014;-57
2023/10/22 00:49:34;;;;;;;0.50;0.50;;;;;;;10.36;97.46;95941.56;29395;238;63005;-58
2023/10/22 00:50:06;;;;;;;0.50;0.50;;;;;;;10.35;97.45;95940.78;29395;222;63020;-59
2023/10/22 00:50:41;;;;;;;0.50;0.50;;;;;;;10.34;97.48;95938.37;29395;219;63005;-58
2023/10/22 00:51:13;;;;;;;0.60;0.60;;;;;;;10.33;97.44;95942.19;29395;237;63009;-57
2023/10/22 00:51:46;;;;;;;0.50;0.50;;;;;;;10.33;97.31;95936.78;29395;250;63005;-57
2023/10/22 00:52:18;;;;;;;0.50;0.50;;;;;;;10.33;97.63;95942.19;29395;202;63009;-58
2023/10/22 00:52:50;;;;;;;0.50;0.50;;;;;;;10.33;97.23;95947.63;29395;234;63015;-57
2023/10/22 00:53:23;;;;;;;0.50;0.50;;;;;;;10.33;97.13;95943.00;29395;235;63009;-58
2023/10/22 00:53:56;;;;;;;0.50;0.50;;;;;;;10.32;97.24;95946.81;29395;248;63004;-58
2023/10/22 00:54:28;;;;;;;0.50;0.50;;;;;;;10.33;97.34;95943.00;29394;246;64013;-57
2023/10/22 00:55:01;;;;;;;0.50;0.50;;;;;;;10.36;97.48;95938.84;29395;222;63004;-58
2023/10/22 00:55:36;;;;;;;0.50;0.50;;;;;;;10.35;96.94;95945.41;29394;235;64013;-57
2023/10/22 00:56:08;;;;;;;0.50;0.50;;;;;;;10.34;96.83;95941.88;29395;217;63005;-57
2023/10/22 00:56:40;;;;;;;0.60;0.60;;;;;;;10.34;96.95;95941.09;29395;252;63009;-58
2023/10/22 00:57:12;;;;;;;0.50;0.50;;;;;;;10.37;96.67;95943.16;29395;216;63005;-58
2023/10/22 00:57:44;;;;;;;0.50;0.50;;;;;;;10.38;96.55;95944.78;29395;269;63009;-58
2023/10/22 00:58:16;;;;;;;0.50;0.50;;;;;;;10.39;96.11;95946.37;29395;203;63005;-58
2023/10/22 00:58:49;;;;;;;0.50;0.50;;;;;;;10.39;96.03;95946.37;29395;241;63009;-58
2023/10/22 00:59:24;;;;;;;0.50;0.50;;;;;;;10.39;96.27;95940.94;29394;218;64009;-57
2023/10/22 00:59:55;;;;;;;0.50;0.50;;;;;;;10.39;96.23;95940.94;29395;202;63009;-58
2023/10/22 01:00:27;;;;;;;0.50;0.50;;;;;;;10.40;96.19;95948.72;29395;372;63004;-58
2023/10/22 01:00:58;;;;;;;0.50;0.50;;;;;;;10.38;96.22;95945.56;29395;211;63009;-58
2023/10/22 01:01:31;;;;;;;0.50;0.50;;;;;;;10.38;95.84;95948.28;29394;208;64009;-57
2023/10/22 01:02:02;;;;;;;0.50;0.50;;;;;;;10.45;94.84;95955.94;29395;227;63009;-59
2023/10/22 01:02:34;;;;;;;0.50;0.50;;;;;;;10.49;94.84;95946.06;29394;202;64009;-67
2023/10/22 01:03:05;;;;;;;0.50;0.50;;;;;;;10.47;94.46;95948.28;29395;196;63008;-59
2023/10/22 01:03:38;;;;;;;0.50;0.50;;;;;;;10.46;94.37;95941.25;29395;216;63014;-57
2023/10/22 01:04:09;;;;;;;0.40;0.40;;;;;;;10.45;94.46;95947.78;29395;267;63009;-57
2023/10/22 01:04:41;;;;;;;0.50;0.50;;;;;;;10.44;94.85;95948.91;29395;265;63005;-59
2023/10/22 01:05:12;;;;;;;0.57;0.57;;;;;;;10.44;94.92;95948.09;29395;205;63009;-66
2023/10/22 01:05:43;;;;;;;0.50;0.50;;;;;;;10.41;95.11;95944.13;29395;249;63005;-58
2023/10/22 01:06:15;;;;;;;0.50;0.50;;;;;;;10.39;95.14;95954.50;29395;241;63009;-57
2023/10/22 01:06:46;;;;;;;0.50;0.50;;;;;;;10.39;95.12;95954.50;29395;202;63005;-57
2023/10/22 01:07:19;;;;;;;0.65;0.65;;;;;;;10.36;95.25;95960.56;29394;217;64013;-57
2023/10/22 01:07:51;;;;;;;0.50;0.50;;;;;;;10.37;95.30;95954.00;29395;264;63004;-57
2023/10/22 01:08:22;;;;;;;0.60;0.60;;;;;;;10.38;95.26;95955.63;29395;256;63009;-58
2023/10/22 01:08:55;;;;;;;0.50;0.50;;;;;;;10.41;94.70;95957.66;29395;218;63004;-57
2023/10/22 01:09:26;;;;;;;0.50;0.50;;;;;;;10.39;94.49;95951.78;29395;236;63009;-58
2023/10/22 01:09:57;;;;;;;0.57;0.57;;;;;;;10.40;94.18;95959.59;29395;203;63004;-59
2023/10/22 01:10:28;;;;;;;0.50;0.50;;;;;;;10.42;94.76;95951.13;29395;222;63008;-58
2023/10/22 01:11:07;;;;;;;0.50;0.50;;;;;;;10.42;94.34;95956.56;29395;202;63004;-57
2023/10/22 01:11:59;;;;;;;0.50;0.50;;;;;;;10.40;94.38;95958.78;29395;236;63005;-58
2023/10/22 01:12:38;;;;;;;0.50;0.50;;;;;;;10.37;94.41;95954.81;29394;249;64009;-59
2023/10/22 01:13:10;;;;;;;0.50;0.50;;;;;;;10.38;94.54;95950.19;29395;251;63009;-65
2023/10/22 01:13:41;;;;;;;0.50;0.50;;;;;;;10.42;93.92;95956.56;29395;242;63016;-57
2023/10/22 01:14:12;;;;;;;0.50;0.50;;;;;;;10.40;93.91;95958.78;29395;225;63009;-57
2023/10/22 01:14:44;;;;;;;0.50;0.50;;;;;;;10.43;93.88;95947.31;29395;270;63004;-58
2023/10/22 01:15:15;;;;;;;0.50;0.50;;;;;;;10.40;93.81;95948.72;29395;211;63009;-57
2023/10/22 01:15:47;;;;;;;0.50;0.50;;;;;;;10.38;94.18;95961.03;29395;208;63004;-58
2023/10/22 01:16:18;;;;;;;0.50;0.50;;;;;;;10.37;94.29;95954.00;29394;237;64013;-58
2023/10/22 01:16:49;;;;;;;0.50;0.50;;;;;;;10.35;94.49;95962.47;29395;433;63011;-58
2023/10/22 01:17:20;;;;;;;0.50;0.50;;;;;;;10.35;94.70;95958.94;29395;215;63017;-59
2023/10/22 01:17:55;;;;;;;0.50;0.50;;;;;;;10.33;94.87;95959.25;29395;201;63018;-57
2023/10/22 01:18:27;;;;;;;0.50;0.50;;;;;;;10.36;94.69;95953.22;29395;223;63018;-58
2023/10/22 01:18:58;;;;;;;0.57;0.57;;;;;;;10.35;94.18;95956.25;29395;216;63005;-59
2023/10/22 01:19:30;;;;;;;0.50;0.50;;;;;;;10.33;94.45;95961.19;29395;247;63005;-58
2023/10/22 01:20:01;;;;;;;0.50;0.50;;;;;;;10.30;94.21;95959.09;29395;220;63005;-58
2023/10/22 01:20:33;;;;;;;0.50;0.50;;;;;;;10.27;94.61;95957.00;29395;197;63009;-58
2023/10/22 01:21:04;;;;;;;0.50;0.50;;;;;;;10.23;94.78;95954.13;29394;239;64005;-58
2023/10/22 01:21:35;;;;;;;0.50;0.50;;;;;;;10.22;95.16;95962.56;29394;198;64013;-58
2023/10/22 01:22:06;;;;;;;0.50;0.50;;;;;;;10.22;95.10;95957.94;29395;215;63004;-58
2023/10/22 01:22:38;;;;;;;0.50;0.50;;;;;;;10.24;95.12;95960.34;29395;225;63009;-57
2023/10/22 01:23:10;;;;;;;0.70;0.70;;;;;;;10.29;94.74;95962.91;29394;235;64009;-57
2023/10/22 01:23:41;;;;;;;0.50;0.50;;;;;;;10.26;94.60;95958.91;29395;264;63015;-58
2023/10/22 01:24:12;;;;;;;0.50;0.50;;;;;;;10.24;94.72;95961.13;29395;224;63004;-57
2023/10/22 01:24:43;;;;;;;0.50;0.50;;;;;;;10.23;94.88;95958.72;29395;205;63008;-57
2023/10/22 01:25:14;;;;;;;0.50;0.50;;;;;;;10.22;95.04;95959.84;29394;215;64008;-58
2023/10/22 01:25:46;;;;;;;0.50;0.50;;;;;;;10.21;95.43;95958.25;29395;254;63009;-57
2023/10/22 01:26:17;;;;;;;0.50;0.50;;;;;;;10.22;95.39;95965.28;29395;227;63005;-58
2023/10/22 01:26:48;;;;;;;0.50;0.50;;;;;;;10.22;95.30;95965.28;29395;227;63009;-58
2023/10/22 01:27:19;;;;;;;0.50;0.50;;;;;;;10.23;95.30;95959.53;29395;271;63005;-58
2023/10/22 01:27:51;;;;;;;0.75;0.75;;;;;;;10.26;94.40;95958.12;29395;235;63009;-64
2023/10/22 01:28:22;;;;;;;0.50;0.50;;;;;;;10.30;94.30;95959.09;29394;226;64005;-59
2023/10/22 01:28:54;;;;;;;0.50;0.50;;;;;;;10.30;94.13;95959.09;29395;214;63009;-58
2023/10/22 01:29:25;;;;;;;0.60;0.60;;;;;;;10.28;94.07;95956.69;29395;207;63005;-57
2023/10/22 01:29:57;;;;;;;0.50;0.50;;;;;;;10.29;94.84;95960.19;29395;202;63009;-57
2023/10/22 01:30:29;;;;;;;0.50;0.50;;;;;;;10.28;94.78;95951.28;29395;229;63004;-58
2023/10/22 01:31:00;;;;;;;0.50;0.50;;;;;;;10.27;94.97;95954.28;29395;240;63009;-59
2023/10/22 01:31:31;;;;;;;0.60;0.60;;;;;;;10.29;95.13;95952.06;29395;218;63004;-57
2023/10/22 01:32:03;;;;;;;0.55;0.55;;;;;;;10.27;94.97;95951.56;29395;196;63008;-58
2023/10/22 01:32:35;;;;;;;0.50;0.50;;;;;;;10.26;95.05;95955.41;29395;237;63004;-58
2023/10/22 01:33:07;;;;;;;0.50;0.50;;;;;;;10.25;94.95;95957.31;29394;220;64014;-57
2023/10/22 01:33:38;;;;;;;0.50;0.50;;;;;;;10.24;94.62;95954.91;29394;210;64009;-58
2023/10/22 01:34:09;;;;;;;0.50;0.50;;;;;;;10.24;95.02;95957.62;29395;204;63009;-66
2023/10/22 01:34:40;;;;;;;0.50;0.50;;;;;;;10.23;94.86;95958.72;29395;243;63005;-57
2023/10/22 01:35:12;;;;;;;0.50;0.50;;;;;;;10.22;94.65;95957.12;29395;211;63009;-57
2023/10/22 01:35:43;;;;;;;0.50;0.50;;;;;;;10.21;94.67;95953.63;29396;233;63005;-58
2023/10/22 01:36:14;;;;;;;0.50;0.50;;;;;;;10.21;94.86;95950.91;29396;226;63009;-65
2023/10/22 01:36:46;;;;;;;0.50;0.50;;;;;;;10.22;94.84;95957.12;29396;245;63005;-57
2023/10/22 01:37:17;;;;;;;0.50;0.50;;;;;;;10.21;94.96;95955.53;29396;266;63009;-57
2023/10/22 01:37:48;;;;;;;0.50;0.50;;;;;;;10.24;95.19;95949.50;29396;213;63004;-58
2023/10/22 01:38:19;;;;;;;0.50;0.50;;;;;;;10.20;94.66;95949.31;29395;204;64013;-57
2023/10/22 01:38:51;;;;;;;0.50;0.50;;;;;;;10.21;94.84;95956.34;29395;198;64009;-58
2023/10/22 01:39:22;;;;;;;0.50;0.50;;;;;;;10.25;93.96;95956.50;29396;202;63009;-59
2023/10/22 01:39:54;;;;;;;0.50;0.50;;;;;;;10.22;94.17;95955.22;29395;250;63004;-59
2023/10/22 01:40:25;;;;;;;0.50;0.50;;;;;;;10.20;94.75;95953.94;29396;238;63009;-59
2023/10/22 01:40:56;;;;;;;0.50;0.50;;;;;;;10.19;94.79;95955.84;29396;205;63005;-58
2023/10/22 01:41:28;;;;;;;0.50;0.50;;;;;;;10.20;94.29;95948.50;29396;203;63009;-58
2023/10/22 01:41:59;;;;;;;0.50;0.50;;;;;;;10.22;94.19;95952.50;29396;238;63005;-57
2023/10/22 01:42:32;;;;;;;0.50;0.50;;;;;;;10.23;93.80;95950.59;29396;194;63009;-57
2023/10/22 01:43:03;;;;;;;0.50;0.50;;;;;;;10.22;93.64;95957.12;29396;226;63005;-59
2023/10/22 01:43:35;;;;;;;0.50;0.50;;;;;;;10.21;94.01;95955.53;29395;212;64013;-58
2023/10/22 01:44:06;;;;;;;0.50;0.50;;;;;;;10.19;94.05;95955.84;29396;212;63005;-59
2023/10/22 01:44:37;;;;;;;0.50;0.50;;;;;;;10.18;93.91;95954.22;29396;222;63009;-57
2023/10/22 01:45:08;;;;;;;0.50;0.50;;;;;;;10.14;93.91;95955.94;29396;211;63004;-57
2023/10/22 01:45:40;;;;;;;0.50;0.50;;;;;;;10.15;94.33;95962.16;29396;224;63009;-67
2023/10/22 01:46:11;;;;;;;2.50;2.40;;;;;;;10.14;94.66;95960.56;29396;212;63004;-64
2023/10/22 01:46:42;;;;;;;0.50;0.50;;;;;;;10.12;94.51;95960.87;29396;227;63009;-59
2023/10/22 01:47:13;;;;;;;0.50;0.50;;;;;;;10.12;94.48;95962.78;29395;214;64008;-58
2023/10/22 01:47:44;;;;;;;0.50;0.50;;;;;;;10.11;94.31;95963.91;29396;219;63008;-57
2023/10/22 01:48:16;;;;;;;0.50;0.50;;;;;;;10.09;94.79;95965.00;29396;252;63005;-58
2023/10/22 01:48:47;;;;;;;0.50;0.50;;;;;;;10.08;94.68;95958.00;29396;209;63009;-65
2023/10/22 01:49:18;;;;;;;0.50;0.50;;;;;;;10.10;94.60;95957.69;29396;214;63005;-59
2023/10/22 01:49:49;;;;;;;0.50;0.50;;;;;;;10.14;94.20;95966.00;29396;216;63009;-59
2023/10/22 01:50:21;;;;;;;0.50;0.50;;;;;;;10.14;94.22;95968.69;29396;203;63005;-57
2023/10/22 01:50:52;;;;;;;0.50;0.50;;;;;;;10.14;94.50;95968.69;29396;220;63009;-59
2023/10/22 01:51:23;;;;;;;0.50;0.50;;;;;;;10.10;94.23;95973.94;29396;257;63005;-58
2023/10/22 01:51:56;;;;;;;0.50;0.50;;;;;;;10.08;94.20;95968.84;29395;252;64013;-58
2023/10/22 01:52:31;;;;;;;0.50;0.50;;;;;;;10.06;94.37;95973.78;29395;206;64009;-58
2023/10/22 01:53:02;;;;;;;0.50;0.50;;;;;;;10.07;94.07;95971.84;29396;197;63009;-58
2023/10/22 01:53:33;;;;;;;0.50;0.50;;;;;;;10.07;93.99;95967.25;29396;217;63004;-58
2023/10/22 01:54:06;;;;;;;0.50;0.50;;;;;;;10.09;93.72;95965.00;29396;254;63009;-58
2023/10/22 01:54:39;;;;;;;0.50;0.50;;;;;;;10.13;93.51;95970.63;29395;229;64009;-58
2023/10/22 01:55:10;;;;;;;0.50;0.50;;;;;;;10.13;93.29;95970.63;29396;218;63008;-57
2023/10/22 01:55:41;;;;;;;0.50;0.50;;;;;;;10.11;93.15;95972.03;29396;253;63005;-58
2023/10/22 01:56:12;;;;;;;0.50;0.50;;;;;;;10.08;93.47;95968.84;29396;198;63009;-58
2023/10/22 01:56:44;;;;;;;0.50;0.50;;;;;;;10.08;93.93;95974.25;29396;230;63005;-59
2023/10/22 01:57:16;;;;;;;0.50;0.50;;;;;;;10.10;94.12;95976.66;29396;248;63009;-57
2023/10/22 01:57:47;;;;;;;0.50;0.50;;;;;;;10.12;93.73;95973.62;29396;263;63005;-58
2023/10/22 01:58:19;;;;;;;0.50;0.50;;;;;;;10.15;93.54;95973.00;29396;223;63019;-58
2023/10/22 01:58:50;;;;;;;0.50;0.50;;;;;;;10.16;93.09;95975.41;29396;271;63016;-66
2023/10/22 01:59:21;;;;;;;0.50;0.50;;;;;;;10.15;92.87;95973.00;29396;225;63009;-57
2023/10/22 01:59:52;;;;;;;0.50;0.50;;;;;;;10.16;93.08;95980.03;29395;275;64009;-57
2023/10/22 02:00:24;;;;;;;0.50;0.50;;;;;;;10.13;92.88;95976.03;29396;196;63009;-58
2023/10/22 02:01:03;;;;;;;0.50;0.50;;;;;;;10.11;92.86;95975.53;29396;234;63004;-58
2023/10/22 02:01:34;;;;;;;0.50;0.50;;;;;;;10.11;93.27;95974.75;29396;202;63021;-57
2023/10/22 02:02:05;;;;;;;0.50;0.50;;;;;;;10.09;93.32;95970.44;29396;453;63010;-57
2023/10/22 02:02:39;;;;;;;0.50;0.50;;;;;;;10.07;93.39;95969.16;29396;203;63008;-59
2023/10/22 02:03:10;;;;;;;0.50;0.50;;;;;;;10.05;93.25;95968.66;29396;254;63005;-58
2023/10/22 02:03:45;;;;;;;0.50;0.50;;;;;;;10.04;93.34;95984.16;29396;270;63009;-57
2023/10/22 02:04:16;;;;;;;0.50;0.50;;;;;;;10.04;93.60;95981.44;29396;202;63005;-58
2023/10/22 02:04:47;;;;;;;0.50;0.50;;;;;;;10.05;93.85;95974.06;29396;215;63009;-57
2023/10/22 02:05:19;;;;;;;0.70;0.70;;;;;;;10.05;93.36;95977.59;29395;200;64009;-57
2023/10/22 02:05:50;;;;;;;0.50;0.50;;;;;;;10.04;93.78;95981.44;29396;236;63009;-58
2023/10/22 02:06:21;;;;;;;0.50;0.50;;;;;;;10.02;93.81;95975.53;29396;222;63005;-58
2023/10/22 02:06:52;;;;;;;0.50;0.50;;;;;;;9.95;94.07;95969.75;29396;267;63009;-58
2023/10/22 02:07:24;;;;;;;0.50;0.50;;;;;;;9.94;94.24;95978.97;29396;209;63004;-57
2023/10/22 02:07:55;;;;;;;0.50;0.50;;;;;;;9.94;94.15;95976.28;29396;223;63009;-57
2023/10/22 02:08:26;;;;;;;0.50;0.50;;;;;;;9.96;94.52;95975.97;29396;202;63004;-58
2023/10/22 02:08:58;;;;;;;0.50;0.50;;;;;;;9.97;94.55;95980.28;29396;228;63009;-58
2023/10/22 02:09:30;;;;;;;0.50;0.50;;;;;;;9.98;94.74;95979.16;29396;228;63004;-59
2023/10/22 02:10:02;;;;;;;0.50;0.50;;;;;;;9.97;94.45;95981.06;29396;221;63008;-58
2023/10/22 02:10:33;;;;;;;0.50;0.50;;;;;;;9.97;93.89;95983.78;29395;257;64008;-57
2023/10/22 02:11:05;;;;;;;0.50;0.50;;;;;;;9.97;94.15;95989.22;29396;233;63009;-57
2023/10/22 02:11:36;;;;;;;0.50;0.50;;;;;;;9.96;94.37;95982.19;29396;204;63005;-57
2023/10/22 02:12:08;;;;;;;0.47;0.47;;;;;;;9.98;94.02;95985.38;29396;197;63005;-59
2023/10/22 02:12:40;;;;;;;0.50;0.50;;;;;;;9.98;93.91;95984.59;29395;249;64005;-58
2023/10/22 02:13:11;;;;;;;0.50;0.50;;;;;;;9.98;93.84;95985.38;29396;240;63009;-57
2023/10/22 02:14:57;;;;;;;0.50;0.50;;;;;;;10.05;93.42;95985.72;88176;216;64004;-91
2023/10/22 02:16:20;;;;;;;0.50;0.50;;;;;;;10.01;93.87;95984.75;29394;210;64009;-93
2023/10/22 02:17:19;;;;;;;0.50;0.50;;;;;;;10.02;94.50;95991.78;29394;258;64009;-91
2023/10/22 02:19:03;;;;;;;0.55;0.55;;;;;;;10.05;93.62;95990.34;29395;203;63004;-91
2023/10/22 02:22:16;;;;;;;;;;;;;;;;;;;;;
2023/10/22 02:23:26;;;;;;;0.60;0.60;;;;;;;10.06;93.62;95991.94;29394;256;64009;-90
2023/10/22 02:24:20;;;;;;;;;;;;;;;10.09;93.79;95992.13;29996;986;6004;-92
2023/10/22 02:25:56;;;;;;;0.50;0.50;;;;;;;10.07;92.98;95993.53;29400;211;63004;-91
2023/10/22 02:28:02;;;;;;;0.50;0.50;;;;;;;10.05;93.58;95993.03;29395;202;63009;-91
2023/10/22 02:29:49;;;;;;;;;;;;;;;;;;;;;
2023/10/22 03:02:48;;;;;;;0.50;0.50;;;;;;;9.76;94.92;96031.44;29395;236;63015;-92
2023/10/22 03:04:05;;;;;;;0.50;0.50;;;;;;;9.76;95.11;96031.44;29394;250;64004;-92
2023/10/22 03:06:07;;;;;;;0.60;0.60;;;;;;;9.74;95.50;96039.09;29395;205;63009;-92
2023/10/22 03:07:03;;;;;;;0.60;0.60;;;;;;;9.72;95.92;96042.09;29394;274;64009;-91
2023/10/22 03:08:30;;;;;;;;;;;;;;;;;;;;;
2023/10/22 03:11:04;;;;;;;0.60;0.60;;;;;;;9.80;95.08;96042.47;29395;107;63013;-57
2023/10/22 03:11:36;;;;;;;0.60;0.60;;;;;;;9.82;95.24;96045.69;29395;221;63005;-58
2023/10/22 03:12:08;;;;;;;0.52;0.52;;;;;;;9.83;95.23;96041.84;29395;226;63009;-57
2023/10/22 03:12:39;;;;;;;0.50;0.50;;;;;;;9.82;95.11;96041.06;29395;199;63005;-57
2023/10/22 03:13:11;;;;;;;0.60;0.60;;;;;;;9.82;95.15;96051.09;29395;226;63009;-57
2023/10/22 03:13:42;;;;;;;0.50;0.50;;;;;;;9.81;94.93;96044.87;29395;252;63005;-59
2023/10/22 03:14:19;;;;;;;0.50;0.50;;;;;;;9.80;95.06;96045.19;29394;423;64013;-57
2023/10/22 03:14:52;;;;;;;0.50;0.50;;;;;;;9.79;94.80;96049.81;29394;219;64009;-58
2023/10/22 03:15:24;;;;;;;0.50;0.50;;;;;;;9.75;95.30;96052.31;29395;298;63009;-58
2023/10/22 03:15:57;;;;;;;0.50;0.50;;;;;;;9.75;95.04;96051.53;29395;197;63004;-57
2023/10/22 03:16:29;;;;;;;0.60;0.60;;;;;;;9.71;95.49;96053.25;29395;210;63009;-57
2023/10/22 03:17:00;;;;;;;0.50;0.50;;;;;;;9.70;95.40;96055.16;29395;202;63004;-57
2023/10/22 03:17:32;;;;;;;0.50;0.50;;;;;;;9.69;95.81;96052.78;29395;342;63009;-58
2023/10/22 03:18:03;;;;;;;0.60;0.60;;;;;;;9.69;95.69;96055.47;29395;245;63004;-57
2023/10/22 03:18:34;;;;;;;0.60;0.60;;;;;;;9.69;95.80;96052.78;29395;253;63008;-57
2023/10/22 03:19:05;;;;;;;0.50;0.50;;;;;;;9.73;96.06;96059.16;29395;229;63005;-57
2023/10/22 03:19:37;;;;;;;0.50;0.50;;;;;;;9.77;95.60;96062.06;29394;322;64014;-57
2023/10/22 03:20:10;;;;;;;0.60;0.60;;;;;;;9.75;95.51;96054.22;29395;267;63005;-58
2023/10/22 03:20:42;;;;;;;0.60;0.60;;;;;;;9.75;95.38;96060.44;29395;401;63009;-58
2023/10/22 03:21:24;;;;;;;0.50;0.50;;;;;;;9.79;95.37;96060.63;29395;217;63005;-64
2023/10/22 03:21:55;;;;;;;0.60;0.60;;;;;;;9.79;95.06;96057.12;29395;245;63009;-57